createdAt,value
2022-11-24T05:06:57.200Z,49.63
2022-11-24T05:10:18.185Z,54.42
2022-11-24T05:13:20.226Z,53.35
2022-11-24T05:16:22.530Z,54.42
2022-11-24T05:19:26.299Z,54.50
2022-11-24T05:22:32.496Z,53.00
2022-11-24T05:25:35.340Z,51.67
2022-11-24T05:28:37.624Z,50.12
2022-11-24T05:31:39.718Z,51.53
2022-11-24T05:34:42.013Z,53.58
2022-11-24T05:37:44.039Z,55.50
2022-11-24T05:40:46.400Z,49.72
2022-11-24T05:43:48.445Z,52.90
2022-11-24T05:46:51.163Z,49.90
2022-11-24T05:49:53.258Z,55.15
2022-11-24T05:52:55.557Z,50.95
2022-11-24T05:55:57.784Z,54.03
2022-11-24T05:59:00.929Z,50.65
2022-11-24T06:02:05.239Z,52.13
2022-11-24T06:05:08.262Z,54.85
2022-11-24T06:08:10.308Z,48.35
2022-11-24T06:11:18.531Z,50.08
2022-11-24T06:14:20.592Z,41.40
2022-11-24T06:17:22.918Z,43.33
2022-11-24T06:20:28.503Z,42.78
2022-11-24T06:23:33.768Z,39.95
2022-11-24T06:26:35.840Z,45.35
2022-11-24T06:29:38.778Z,45.47
2022-11-24T06:32:49.156Z,48.97
2022-11-24T06:35:52.396Z,45.38
2022-11-24T06:38:54.708Z,47.85
2022-11-24T06:41:57.420Z,42.50
2022-11-24T06:45:00.326Z,41.05
2022-11-24T06:48:02.839Z,45.08
2022-11-24T06:51:07.338Z,45.80
2022-11-24T06:54:13.780Z,47.15
2022-11-24T06:57:15.846Z,38.45
2022-11-24T07:00:18.699Z,42.47
2022-11-24T07:03:20.809Z,40.65
2022-11-24T07:06:25.204Z,40.67
2022-11-24T07:09:27.426Z,44.67
2022-11-24T07:12:35.780Z,41.83
2022-11-24T07:15:40.275Z,42.03
2022-11-24T07:18:47.375Z,39.95
2022-11-24T07:21:49.475Z,42.95
2022-11-24T07:24:51.904Z,40.00
2022-11-24T07:27:57.899Z,44.42
2022-11-24T07:31:12.309Z,42.75
2022-11-24T07:34:14.874Z,42.40
2022-11-24T07:37:17.299Z,42.38
2022-11-24T07:40:19.352Z,38.00
2022-11-24T07:43:21.694Z,41.88
2022-11-24T07:46:24.159Z,45.10
2022-11-24T07:49:26.562Z,42.80
2022-11-24T07:52:28.606Z,38.55
2022-11-24T07:55:30.945Z,34.42
2022-11-24T07:58:35.866Z,35.75
2022-11-24T08:01:38.224Z,35.33
2022-11-24T08:04:40.561Z,39.42
2022-11-24T08:07:42.699Z,32.75
2022-11-24T08:10:45.038Z,35.42
2022-11-24T08:13:47.279Z,36.53
2022-11-24T08:16:49.813Z,33.30
2022-11-24T08:19:51.876Z,39.80
2022-11-24T08:22:58.339Z,35.97
2022-11-24T08:26:05.337Z,40.22
2022-11-24T08:29:07.755Z,37.85
2022-11-24T08:32:10.885Z,38.63
2022-11-24T08:35:14.231Z,40.95
2022-11-24T08:38:17.285Z,41.95
2022-11-24T08:41:19.581Z,45.72
2022-11-24T08:44:21.599Z,37.88
2022-11-24T08:47:23.924Z,39.00
2022-11-24T08:50:26.306Z,39.70
2022-11-24T08:53:28.584Z,43.15
2022-11-24T08:56:34.293Z,44.88
2022-11-24T08:59:37.106Z,43.95
2022-11-24T09:02:39.403Z,41.22
2022-11-24T09:05:57.262Z,46.37
2022-11-24T09:08:59.927Z,37.33
2022-11-24T09:12:02.212Z,46.35
2022-11-24T09:15:04.976Z,44.40
2022-11-24T09:18:07.586Z,45.47
2022-11-24T09:21:12.444Z,44.72
2022-11-24T09:24:16.481Z,44.47
2022-11-24T09:27:18.507Z,47.40
2022-11-24T09:30:20.977Z,44.83
2022-11-24T09:33:23.120Z,42.60
2022-11-24T09:36:25.574Z,35.88
2022-11-24T09:39:27.665Z,41.92
2022-11-24T09:42:40.837Z,40.40
2022-11-24T09:49:14.415Z,35.33
2022-11-24T09:52:23.147Z,34.00
2022-11-24T09:55:32.432Z,35.63
2022-11-24T09:58:45.871Z,35.22
2022-11-24T10:01:50.511Z,35.38
2022-11-24T10:04:54.716Z,34.17
2022-11-24T10:08:25.794Z,31.67
2022-11-24T10:11:38.116Z,33.55
2022-11-24T10:15:19.087Z,30.08
2022-11-24T10:18:33.743Z,30.20
2022-11-24T10:21:54.511Z,28.67
2022-11-24T10:25:19.289Z,35.00
2022-11-24T10:28:21.378Z,28.30
2022-11-24T10:31:36.119Z,29.37
2022-11-24T10:34:43.401Z,31.70
2022-11-24T10:38:02.325Z,28.60
2022-11-24T10:41:20.261Z,31.08
2022-11-24T10:44:22.644Z,28.98
2022-11-24T10:47:24.712Z,31.80
2022-11-24T10:50:30.511Z,28.73
2022-11-24T10:53:35.406Z,30.77
2022-11-24T10:56:42.383Z,30.42
2022-11-24T10:59:44.426Z,28.05
2022-11-24T11:02:48.773Z,28.80
2022-11-24T11:05:56.902Z,33.10
2022-11-24T11:09:20.986Z,32.13
2022-11-24T11:12:47.655Z,31.40
2022-11-24T11:15:50.388Z,29.95
2022-11-24T11:18:53.177Z,30.95
2022-11-24T11:22:02.036Z,30.62
2022-11-24T11:25:10.132Z,31.33
2022-11-24T11:28:18.816Z,27.58
2022-11-24T11:31:22.775Z,28.30
2022-11-24T11:34:35.277Z,32.00
2022-11-24T11:37:37.337Z,31.00
2022-11-24T11:40:43.570Z,27.20
2022-11-24T11:43:50.564Z,30.20
2022-11-24T11:46:54.801Z,30.62
2022-11-24T11:49:57.679Z,25.92
2022-11-24T11:53:18.641Z,26.67
2022-11-24T11:56:30.685Z,23.65
2022-11-24T11:59:55.035Z,25.75
2022-11-24T12:03:42.452Z,26.77
2022-11-24T12:07:06.464Z,22.77
2022-11-24T12:10:25.312Z,24.90
2022-11-24T12:13:53.763Z,20.00
2022-11-24T12:17:08.866Z,23.80
2022-11-24T12:20:37.765Z,23.70
2022-11-24T12:23:52.097Z,24.35
2022-11-24T12:27:03.924Z,22.73
2022-11-24T12:30:12.712Z,24.48
2022-11-24T12:33:30.162Z,21.77
2022-11-24T12:36:41.168Z,23.40
2022-11-24T12:40:03.771Z,22.27
2022-11-24T12:43:22.626Z,20.60
2022-11-24T12:46:51.922Z,19.95
2022-11-24T12:50:06.016Z,22.73
2022-11-24T12:53:21.939Z,20.83
2022-11-24T12:56:43.329Z,20.45
2022-11-24T13:00:07.779Z,22.80
2022-11-24T13:03:31.153Z,21.48
2022-11-24T13:07:10.933Z,22.75
2022-11-24T13:10:55.479Z,18.65
2022-11-24T13:17:40.601Z,18.40
2022-11-24T13:20:52.516Z,25.40
2022-11-24T13:23:59.616Z,18.75
2022-11-24T13:27:18.767Z,20.98
2022-11-24T13:30:35.828Z,19.30
2022-11-24T13:33:38.846Z,22.73
2022-11-24T13:36:53.644Z,18.90
2022-11-24T13:40:11.734Z,21.00
2022-11-24T13:43:13.787Z,18.83
2022-11-24T13:46:56.616Z,19.95
2022-11-24T13:50:04.717Z,20.23
2022-11-24T13:53:18.224Z,17.30
2022-11-24T13:56:24.512Z,18.00
2022-11-24T14:02:35.162Z,21.00
2022-11-24T14:05:41.094Z,17.70
2022-11-24T14:08:45.716Z,18.23
2022-11-24T14:11:59.647Z,20.00
2022-11-24T14:15:22.359Z,21.65
2022-11-24T14:18:24.937Z,18.15
2022-11-24T14:21:42.303Z,19.45
2022-11-24T14:24:50.803Z,17.75
2022-11-24T14:27:52.941Z,16.90
2022-11-24T14:31:10.056Z,19.55
2022-11-24T14:34:12.098Z,20.58
2022-11-24T14:37:14.457Z,17.55
2022-11-24T14:40:45.098Z,20.88
2022-11-24T14:43:47.514Z,20.50
2022-11-24T14:46:50.534Z,20.00
2022-11-24T14:49:54.125Z,18.60
2022-11-24T14:52:58.428Z,21.70
2022-11-24T14:56:21.210Z,17.62
2022-11-24T14:59:25.889Z,18.00
2022-11-24T15:02:48.284Z,20.05
2022-11-24T15:05:56.041Z,19.02
2022-11-24T15:08:58.499Z,20.00
2022-11-24T15:12:06.608Z,21.08
2022-11-24T15:15:15.050Z,20.10
2022-11-24T15:18:35.704Z,21.65
2022-11-24T15:21:38.009Z,22.05
2022-11-24T15:24:50.996Z,23.83
2022-11-24T15:27:53.388Z,24.63
2022-11-24T15:31:01.468Z,24.63
2022-11-24T15:34:03.860Z,22.95
2022-11-24T15:37:05.906Z,20.98
2022-11-24T15:40:10.356Z,26.87
2022-11-24T15:43:29.490Z,24.83
2022-11-24T15:46:38.061Z,23.20
2022-11-24T15:49:40.449Z,23.73
2022-11-24T15:52:43.267Z,20.45
2022-11-24T15:55:45.628Z,19.87
2022-11-24T15:58:48.486Z,20.90
2022-11-24T16:01:50.817Z,25.55
2022-11-24T16:04:53.392Z,21.58
2022-11-24T16:07:55.546Z,21.58
2022-11-24T16:10:57.932Z,22.08
2022-11-24T16:14:00.115Z,23.62
2022-11-24T16:17:03.154Z,25.48
2022-11-24T16:20:05.956Z,25.25
2022-11-24T16:23:08.272Z,25.55
2022-11-24T16:26:10.420Z,26.95
2022-11-24T16:29:12.880Z,25.20
2022-11-24T16:32:14.970Z,26.67
2022-11-24T16:35:17.638Z,26.62
2022-11-24T16:38:20.348Z,27.52
2022-11-24T16:41:23.137Z,30.25
2022-11-24T16:44:25.216Z,26.98
